Time;durP1;ratioP1;P1;durP2;ratioP2;P2;SDS_P1;SDS_P2;PMS_P1;PMS_P2;Temp;Humidity;BMP_temperature;BMP_pressure;BME280_temperature;BME280_humidity;BME280_pressure;Samples;Min_cycle;Max_cycle;Signal;HPM_P1;HPM_P2
2020/12/14 00:02:25;;;;;;;2.67;1.70;;;9.50;99.90;;;;;;5041290;28;20183;-91
2020/12/14 00:04:54;;;;;;;6.45;2.47;;;9.50;99.90;;;;;;5024973;28;20203;-90
2020/12/14 00:07:22;;;;;;;2.27;1.40;;;9.50;99.90;;;;;;5040599;28;20560;-92
2020/12/14 00:09:48;;;;;;;5.30;1.60;;;9.50;99.90;;;;;;5040748;28;20172;-90
2020/12/14 00:12:14;;;;;;;4.20;1.23;;;9.50;99.90;;;;;;5042511;28;20234;-91
2020/12/14 00:14:40;;;;;;;7.22;1.50;;;9.60;99.90;;;;;;5043946;28;20271;-89
2020/12/14 00:17:05;;;;;;;3.00;1.43;;;9.60;99.90;;;;;;5042596;28;20207;-89
2020/12/14 00:19:32;;;;;;;3.85;1.42;;;9.60;99.90;;;;;;5044634;28;20176;-90
2020/12/14 00:22:00;;;;;;;6.43;1.77;;;9.60;99.90;;;;;;5031871;28;20191;-90
2020/12/14 00:24:37;;;;;;;4.20;1.27;;;9.60;99.90;;;;;;5048685;28;20176;-91
2020/12/14 00:27:12;;;;;;;6.35;1.38;;;9.60;99.90;;;;;;5037067;28;20180;-90
2020/12/14 00:29:55;;;;;;;5.47;1.92;;;9.60;99.90;;;;;;5050088;28;20179;-90
2020/12/14 00:32:22;;;;;;;3.65;1.50;;;9.60;99.90;;;;;;5046948;28;20264;-90
2020/12/14 00:34:52;;;;;;;4.82;1.40;;;9.60;99.90;;;;;;5031649;28;20169;-91
2020/12/14 00:37:22;;;;;;;5.25;1.55;;;9.60;99.90;;;;;;5029215;28;20165;-89
2020/12/14 00:39:55;;;;;;;2.95;1.42;;;9.60;99.90;;;;;;5055778;28;20183;-91
2020/12/14 00:42:44;;;;;;;5.75;2.08;;;9.60;99.90;;;;;;5059496;28;20175;-90
2020/12/14 00:45:12;;;;;;;5.47;1.75;;;9.60;99.90;;;;;;5050201;28;20640;-91
2020/12/14 00:47:41;;;;;;;8.60;2.10;;;9.50;99.90;;;;;;5023113;28;20545;-88
2020/12/14 00:50:09;;;;;;;4.25;1.58;;;9.40;99.90;;;;;;5055881;28;20221;-88
2020/12/14 00:52:42;;;;;;;7.82;1.88;;;9.40;99.90;;;;;;5050390;28;20217;-89
2020/12/14 00:55:16;;;;;;;7.00;1.75;;;9.40;99.90;;;;;;5043231;28;20183;-92
2020/12/14 00:57:46;;;;;;;7.33;1.80;;;9.40;99.90;;;;;;5058612;28;20171;-89
2020/12/14 01:00:18;;;;;;;4.87;2.00;;;9.30;99.90;;;;;;5058555;28;20191;-91
2020/12/14 01:02:44;;;;;;;2.67;1.80;;;9.30;99.90;;;;;;5019536;28;20192;-91
2020/12/14 01:05:15;;;;;;;6.72;1.70;;;9.30;99.90;;;;;;5053767;28;20160;-90
2020/12/14 01:07:43;;;;;;;3.78;1.70;;;9.40;99.90;;;;;;5043048;28;20238;-90
2020/12/14 01:10:09;;;;;;;5.38;2.00;;;9.40;99.90;;;;;;5043349;28;20492;-90
2020/12/14 01:12:35;;;;;;;7.07;2.00;;;9.40;99.90;;;;;;5043152;28;20254;-90
2020/12/14 01:15:05;;;;;;;5.93;1.70;;;9.30;99.90;;;;;;5044892;28;20211;-90
2020/12/14 01:17:50;;;;;;;4.05;1.55;;;9.30;99.90;;;;;;5047171;28;20184;-90
2020/12/14 01:20:19;;;;;;;5.53;1.58;;;9.40;99.90;;;;;;5017817;28;20253;-90
2020/12/14 01:22:57;;;;;;;5.43;1.70;;;9.40;99.90;;;;;;5026657;28;20182;-91
2020/12/14 01:25:27;;;;;;;3.63;1.90;;;9.40;99.90;;;;;;5027738;28;20218;-90
2020/12/14 01:27:52;;;;;;;4.23;2.07;;;9.40;99.90;;;;;;5040077;28;20275;-91
2020/12/14 01:30:26;;;;;;;4.73;1.57;;;9.40;99.90;;;;;;5027368;28;20175;-90
2020/12/14 01:32:53;;;;;;;8.82;1.90;;;9.40;99.90;;;;;;5026523;28;20231;-90
2020/12/14 01:35:22;;;;;;;4.57;1.58;;;9.40;99.90;;;;;;5044866;28;20195;-91
2020/12/14 01:37:51;;;;;;;4.13;1.65;;;9.50;99.90;;;;;;5029112;28;20172;-91
2020/12/14 01:40:20;;;;;;;4.10;1.70;;;9.50;99.90;;;;;;5024282;28;20188;-89
2020/12/14 01:42:51;;;;;;;5.28;1.75;;;9.50;99.90;;;;;;5022302;28;20247;-90
2020/12/14 01:45:20;;;;;;;14.60;1.77;;;9.50;99.90;;;;;;5027938;28;20180;-91
2020/12/14 01:47:52;;;;;;;3.78;1.52;;;9.60;99.90;;;;;;5045138;28;20195;-90
2020/12/14 01:50:23;;;;;;;3.65;1.65;;;9.50;99.90;;;;;;5044488;28;20203;-90
2020/12/14 01:52:50;;;;;;;3.03;1.60;;;9.50;99.90;;;;;;5025979;28;20216;-90
2020/12/14 01:55:21;;;;;;;3.80;1.50;;;9.50;99.90;;;;;;5036943;28;20184;-90
2020/12/14 01:57:56;;;;;;;2.00;1.63;;;9.50;99.90;;;;;;5048425;28;20203;-90
2020/12/14 02:00:22;;;;;;;2.45;1.77;;;9.60;99.90;;;;;;5033103;28;20178;-91
2020/12/14 02:02:49;;;;;;;3.25;1.52;;;9.60;99.90;;;;;;5048541;28;20632;-90
2020/12/14 02:05:20;;;;;;;3.50;1.92;;;9.60;99.90;;;;;;5048887;28;20171;-90
2020/12/14 02:08:00;;;;;;;7.03;1.90;;;9.70;99.90;;;;;;5015085;28;20223;-89
2020/12/14 02:10:26;;;;;;;9.95;1.95;;;9.70;99.90;;;;;;5035948;28;20550;-90
2020/12/14 02:12:51;;;;;;;5.83;1.50;;;9.60;99.90;;;;;;5024826;28;20280;-90
2020/12/14 02:15:17;;;;;;;4.82;1.85;;;9.70;99.90;;;;;;5039900;28;20171;-89
2020/12/14 02:17:43;;;;;;;3.53;1.60;;;9.60;99.90;;;;;;5039248;28;20263;-90
2020/12/14 02:20:09;;;;;;;2.33;1.60;;;9.70;99.90;;;;;;5040318;28;20183;-89
2020/12/14 02:22:36;;;;;;;6.22;1.90;;;9.70;99.90;;;;;;5041204;28;20168;-90
2020/12/14 02:25:06;;;;;;;7.78;1.98;;;9.70;99.90;;;;;;5025138;28;20215;-89
2020/12/14 02:27:35;;;;;;;11.00;2.65;;;9.70;99.90;;;;;;5041189;28;20176;-88
2020/12/14 02:30:03;;;;;;;5.60;2.22;;;9.80;99.90;;;;;;5042750;28;20240;-90
2020/12/14 02:32:30;;;;;;;5.35;1.98;;;9.70;99.90;;;;;;5023551;28;20212;-89
2020/12/14 02:34:56;;;;;;;3.60;2.30;;;9.70;99.90;;;;;;5026403;28;20172;-90
2020/12/14 02:37:25;;;;;;;6.43;2.20;;;9.70;99.90;;;;;;5039800;28;20212;-90
2020/12/14 02:39:51;;;;;;;3.67;1.93;;;9.70;99.90;;;;;;5042183;28;20171;-90
2020/12/14 02:42:19;;;;;;;3.05;2.28;;;9.70;99.90;;;;;;5039894;28;20187;-88
2020/12/14 02:44:45;;;;;;;5.30;1.85;;;9.70;99.90;;;;;;5034902;28;20176;-89
2020/12/14 02:47:12;;;;;;;3.22;1.88;;;9.60;99.90;;;;;;5020734;28;20211;-89
2020/12/14 02:49:38;;;;;;;5.13;1.88;;;9.50;99.90;;;;;;5038115;28;20202;-89
2020/12/14 02:52:06;;;;;;;3.53;1.93;;;9.60;99.90;;;;;;5040078;28;20196;-89
2020/12/14 02:54:32;;;;;;;4.43;1.53;;;9.60;99.90;;;;;;5040520;28;20188;-88
2020/12/14 02:56:58;;;;;;;5.57;1.45;;;9.60;99.90;;;;;;5022109;28;20218;-89
2020/12/14 02:59:24;;;;;;;3.67;2.05;;;9.60;99.90;;;;;;5037948;28;20168;-88
2020/12/14 03:01:50;;;;;;;2.17;1.73;;;9.60;99.90;;;;;;5037384;28;20633;-89
2020/12/14 03:04:17;;;;;;;3.53;1.57;;;9.60;99.90;;;;;;5043748;28;20477;-89
2020/12/14 03:06:44;;;;;;;4.80;2.13;;;9.60;99.90;;;;;;5056698;28;20157;-89
2020/12/14 03:09:14;;;;;;;2.72;1.55;;;9.70;99.90;;;;;;5052438;28;20179;-90
2020/12/14 03:11:47;;;;;;;7.35;1.80;;;9.70;99.90;;;;;;5045292;28;20172;-92
2020/12/14 03:14:25;;;;;;;3.70;1.90;;;9.70;99.90;;;;;;5041081;28;20590;-90
2020/12/14 03:16:53;;;;;;;3.58;1.70;;;9.70;99.90;;;;;;5043505;28;20183;-90
2020/12/14 03:19:22;;;;;;;3.10;2.10;;;9.80;99.90;;;;;;5041883;28;20175;-92
2020/12/14 03:21:53;;;;;;;4.65;2.75;;;9.90;99.90;;;;;;5055860;28;20232;-91
2020/12/14 03:24:26;;;;;;;2.90;2.00;;;9.80;99.90;;;;;;5054377;28;20166;-90
2020/12/14 03:26:52;;;;;;;5.33;2.77;;;9.70;99.90;;;;;;5040312;28;20181;-92
2020/12/14 03:29:24;;;;;;;4.83;1.93;;;9.70;99.90;;;;;;5036259;28;20177;-92
2020/12/14 03:31:49;;;;;;;7.97;2.40;;;9.60;99.90;;;;;;5022728;28;20177;-92
2020/12/14 03:34:18;;;;;;;4.10;1.88;;;9.60;99.90;;;;;;5024285;28;20196;-93
2020/12/14 03:36:55;;;;;;;3.85;2.25;;;9.70;99.90;;;;;;5044376;28;20176;-93
2020/12/14 03:39:21;;;;;;;10.77;2.97;;;9.70;99.90;;;;;;5028840;28;20215;-93
2020/12/14 03:41:50;;;;;;;6.25;2.35;;;9.80;99.90;;;;;;5032450;28;20184;-94
2020/12/14 03:44:21;;;;;;;4.65;2.67;;;9.80;99.90;;;;;;5050174;28;20330;-92
2020/12/14 03:46:53;;;;;;;5.70;2.03;;;9.90;99.90;;;;;;5050695;28;20198;-91
2020/12/14 03:49:19;;;;;;;4.45;2.08;;;9.90;99.90;;;;;;5043315;28;20168;-92
2020/12/14 03:51:48;;;;;;;8.05;2.38;;;9.80;99.90;;;;;;5053253;28;20183;-91
2020/12/14 03:54:14;;;;;;;5.18;2.17;;;9.90;99.90;;;;;;5055577;28;20164;-92
2020/12/14 03:56:43;;;;;;;4.70;2.88;;;9.90;99.90;;;;;;5055626;28;20179;-94
2020/12/14 03:59:15;;;;;;;3.85;2.20;;;10.00;99.90;;;;;;5034524;28;20210;-92
2020/12/14 04:01:41;;;;;;;6.75;2.85;;;9.90;99.90;;;;;;5056041;28;20160;-93
2020/12/14 04:04:38;;;;;;;7.97;2.75;;;9.90;99.90;;;;;;5055107;28;20203;-89
2020/12/14 04:07:05;;;;;;;7.75;2.78;;;9.80;99.90;;;;;;5040458;28;20188;-92
2020/12/14 04:09:31;;;;;;;2.92;2.25;;;9.90;99.90;;;;;;5042456;28;20184;-94
2020/12/14 04:12:05;;;;;;;5.75;3.30;;;10.00;99.90;;;;;;5054988;28;20234;-93
2020/12/14 04:14:59;;;;;;;5.65;2.45;;;9.90;99.90;;;;;;5039726;28;20193;-93
2020/12/14 04:17:31;;;;;;;9.60;3.15;;;10.00;99.90;;;;;;5041929;28;20248;-92
2020/12/14 04:19:56;;;;;;;8.73;2.80;;;10.00;99.90;;;;;;5056674;28;20268;-93
2020/12/14 04:22:23;;;;;;;2.78;2.28;;;10.10;99.90;;;;;;5039782;28;20180;-92
2020/12/14 04:24:55;;;;;;;7.22;2.47;;;10.10;99.90;;;;;;5034927;28;20189;-90
2020/12/14 04:27:26;;;;;;;5.30;2.42;;;10.20;99.90;;;;;;5040594;28;20261;-92
2020/12/14 04:30:00;;;;;;;4.65;2.03;;;10.20;99.90;;;;;;5038011;28;20164;-91
2020/12/14 04:32:30;;;;;;;10.00;2.30;;;10.10;99.90;;;;;;5053992;28;20216;-93
2020/12/14 04:34:56;;;;;;;4.55;2.17;;;10.10;99.90;;;;;;5037726;28;20212;-92
2020/12/14 04:37:26;;;;;;;5.47;2.13;;;10.20;99.90;;;;;;5053344;28;20172;-93
2020/12/14 04:39:58;;;;;;;5.85;2.08;;;10.20;99.90;;;;;;5051389;28;20192;-92
2020/12/14 04:42:29;;;;;;;4.90;2.20;;;10.20;99.90;;;;;;5037488;28;20160;-93
2020/12/14 04:44:59;;;;;;;7.85;1.80;;;10.30;99.90;;;;;;5038609;28;20180;-93
2020/12/14 04:47:28;;;;;;;4.00;1.88;;;10.40;99.90;;;;;;5054449;28;20180;-91
2020/12/14 04:49:58;;;;;;;3.75;1.65;;;10.40;99.90;;;;;;5055532;28;20226;-94
2020/12/14 04:52:24;;;;;;;2.65;1.85;;;10.30;99.90;;;;;;5054690;28;20192;-92
2020/12/14 04:54:51;;;;;;;5.13;1.88;;;10.30;99.90;;;;;;5038820;28;20180;-92
2020/12/14 04:57:22;;;;;;;2.72;1.67;;;10.30;99.90;;;;;;5035721;28;20224;-92
2020/12/14 04:59:57;;;;;;;2.92;1.92;;;10.30;99.90;;;;;;5052190;28;20235;-93
2020/12/14 05:02:25;;;;;;;3.00;1.58;;;10.30;99.90;;;;;;5054548;28;20176;-93
2020/12/14 05:04:59;;;;;;;3.90;1.90;;;10.40;99.90;;;;;;5053477;28;20180;-94
2020/12/14 05:07:44;;;;;;;5.20;1.90;;;10.40;99.90;;;;;;5035743;28;20168;-93
2020/12/14 05:10:11;;;;;;;5.45;2.53;;;10.40;99.90;;;;;;5037509;28;20174;-94
2020/12/14 05:12:46;;;;;;;5.55;1.50;;;10.50;99.90;;;;;;5051550;28;20211;-93
2020/12/14 05:15:25;;;;;;;6.75;1.83;;;10.50;99.90;;;;;;5052716;28;20159;-94
2020/12/14 05:18:10;;;;;;;2.47;1.65;;;10.60;99.90;;;;;;5050440;28;20174;-93
2020/12/14 05:20:39;;;;;;;4.78;1.70;;;10.60;99.90;;;;;;5049747;28;20199;-94
2020/12/14 05:23:37;;;;;;;3.10;1.50;;;10.60;99.90;;;;;;5055181;28;20243;-93
2020/12/14 05:26:29;;;;;;;4.25;1.65;;;10.60;99.90;;;;;;5054229;28;20160;-91
2020/12/14 05:28:55;;;;;;;7.07;1.73;;;10.60;99.90;;;;;;5034888;28;20184;-95
2020/12/14 05:37:04;;;;;;;3.50;1.30;;;10.70;99.90;;;;;;5037263;28;20207;-93
2020/12/14 05:39:30;;;;;;;1.52;1.00;;;10.60;99.90;;;;;;5038606;28;20193;-95
2020/12/14 05:42:14;;;;;;;8.02;1.63;;;10.60;99.90;;;;;;5001706;28;20189;-92
2020/12/14 05:44:45;;;;;;;1.88;1.48;;;10.70;99.90;;;;;;5034095;28;20195;-95
2020/12/14 05:47:31;;;;;;;2.55;1.40;;;10.70;99.90;;;;;;5037813;28;20169;-96
2020/12/14 05:55:19;;;;;;;1.58;1.40;;;10.70;99.90;;;;;;5073150;22;20241;-95
2020/12/14 05:58:00;;;;;;;3.42;1.73;;;10.80;99.90;;;;;;5036212;28;20169;-93
2020/12/14 06:00:31;;;;;;;3.50;1.80;;;10.80;99.90;;;;;;5034188;28;20172;-95
2020/12/14 06:03:01;;;;;;;3.30;1.85;;;10.80;99.90;;;;;;5036921;28;20421;-94
2020/12/14 06:05:42;;;;;;;1.85;1.65;;;10.80;99.90;;;;;;5039895;28;20161;-94
2020/12/14 06:08:46;;;;;;;1.65;1.35;;;10.90;99.90;;;;;;5024862;28;20238;-93
2020/12/14 06:11:12;;;;;;;4.45;1.85;;;10.80;99.90;;;;;;5005450;28;20188;-95
2020/12/14 06:14:02;;;;;;;2.00;1.42;;;10.70;99.90;;;;;;5182816;23;20432;-92
2020/12/14 06:16:47;;;;;;;2.38;1.35;;;10.70;99.90;;;;;;5056958;28;20210;-91
2020/12/14 06:19:19;;;;;;;6.25;1.65;;;10.60;99.90;;;;;;5147593;22;20235;-92
2020/12/14 06:21:56;;;;;;;5.00;1.60;;;10.60;99.90;;;;;;5024763;28;20279;-91
2020/12/14 06:24:26;;;;;;;4.50;1.70;;;10.50;99.90;;;;;;5037713;28;20182;-93
2020/12/14 06:26:53;;;;;;;5.70;1.40;;;10.50;99.90;;;;;;5035527;28;20199;-93
2020/12/14 06:29:33;;;;;;;2.72;1.60;;;10.50;99.90;;;;;;5034773;28;20180;-92
2020/12/14 06:32:35;;;;;;;4.05;1.50;;;10.50;99.90;;;;;;5031486;28;20180;-92
2020/12/14 06:35:01;;;;;;;3.45;1.58;;;10.50;99.90;;;;;;5025491;28;20194;-92
2020/12/14 06:37:53;;;;;;;3.17;1.55;;;10.50;99.90;;;;;;5032040;28;20171;-91
2020/12/14 06:40:22;;;;;;;2.10;1.67;;;10.50;99.90;;;;;;5030847;28;20173;-91
2020/12/14 06:42:48;;;;;;;1.73;1.30;;;10.60;99.90;;;;;;5023831;28;20214;-91
2020/12/14 06:45:19;;;;;;;1.83;1.27;;;10.60;99.90;;;;;;5034526;28;20221;-93
2020/12/14 06:47:51;;;;;;;4.07;1.40;;;10.60;99.90;;;;;;5033285;28;20247;-93
2020/12/14 06:50:31;;;;;;;2.80;1.38;;;10.60;99.90;;;;;;5015812;28;20173;-91
2020/12/14 06:53:00;;;;;;;4.65;1.20;;;10.60;99.90;;;;;;5036642;28;20272;-90
2020/12/14 06:55:44;;;;;;;3.03;0.88;;;10.60;99.90;;;;;;5016905;28;20231;-91
2020/12/14 06:58:27;;;;;;;1.40;1.00;;;10.60;99.90;;;;;;5047346;28;20187;-92
2020/12/14 07:00:53;;;;;;;0.80;0.80;;;10.70;99.90;;;;;;5030249;28;20271;-89
2020/12/14 07:03:36;;;;;;;2.85;0.90;;;10.70;99.90;;;;;;5017707;28;20210;-90
2020/12/14 07:06:05;;;;;;;1.27;0.90;;;10.70;99.90;;;;;;5015103;28;20251;-89
2020/12/14 07:08:38;;;;;;;1.10;0.90;;;10.60;99.90;;;;;;5031192;28;20184;-89
2020/12/14 07:11:18;;;;;;;3.35;0.90;;;10.60;99.90;;;;;;5029722;28;20176;-89
2020/12/14 07:13:45;;;;;;;1.52;0.70;;;10.70;99.90;;;;;;5029941;28;20258;-89
2020/12/14 07:16:12;;;;;;;3.85;0.88;;;10.70;99.90;;;;;;5031879;28;20164;-89
2020/12/14 07:18:42;;;;;;;1.35;0.88;;;10.70;99.90;;;;;;5030506;28;20247;-89
2020/12/14 07:21:15;;;;;;;1.13;0.90;;;10.70;99.90;;;;;;5024455;28;20197;-90
2020/12/14 07:23:43;;;;;;;1.08;0.95;;;10.80;99.90;;;;;;5021840;28;20183;-89
2020/12/14 07:26:12;;;;;;;1.30;1.08;;;10.80;99.90;;;;;;5028576;28;20518;-89
2020/12/14 07:28:39;;;;;;;1.10;0.95;;;10.80;99.90;;;;;;5050039;22;20235;-91
2020/12/14 07:31:08;;;;;;;1.55;1.05;;;10.90;99.90;;;;;;5034320;28;20211;-91
2020/12/14 07:33:34;;;;;;;1.80;1.38;;;10.80;99.90;;;;;;5027307;28;20207;-91
2020/12/14 07:36:10;;;;;;;1.30;1.20;;;10.80;99.90;;;;;;5026883;28;20181;-91
2020/12/14 07:38:54;;;;;;;4.63;1.48;;;10.80;99.90;;;;;;5030430;28;20196;-89
2020/12/14 07:41:20;;;;;;;2.78;1.30;;;10.70;99.90;;;;;;5033338;28;20165;-90
2020/12/14 07:43:49;;;;;;;2.97;1.33;;;10.60;99.90;;;;;;5033483;28;20196;-88
2020/12/14 07:46:18;;;;;;;1.33;1.15;;;10.70;99.90;;;;;;5036249;28;20187;-90
2020/12/14 07:49:11;;;;;;;2.97;1.40;;;10.60;99.90;;;;;;5037534;28;20163;-89
2020/12/14 07:51:49;;;;;;;1.52;1.30;;;10.70;99.90;;;;;;5017110;28;20176;-91
2020/12/14 07:54:26;;;;;;;5.28;1.52;;;10.70;99.90;;;;;;5018554;28;20185;-92
2020/12/14 07:57:07;;;;;;;1.95;1.48;;;10.60;99.90;;;;;;5044786;28;20187;-92
2020/12/14 07:59:37;;;;;;;4.45;2.17;;;10.60;99.90;;;;;;5055508;28;20156;-90
2020/12/14 08:02:09;;;;;;;2.78;2.40;;;10.70;99.90;;;;;;5021287;28;20182;-90
2020/12/14 08:04:41;;;;;;;2.63;2.40;;;10.70;99.90;;;;;;5023920;28;20157;-91
2020/12/14 08:07:33;;;;;;;;;;;;;;;;;;;;;
2020/12/14 08:10:21;;;;;;;1.95;1.85;;;10.60;99.90;;;;;;5025451;28;20192;-92
2020/12/14 08:12:49;;;;;;;7.38;2.03;;;10.60;99.90;;;;;;5040762;28;20197;-91
2020/12/14 08:15:25;;;;;;;2.38;1.77;;;10.60;99.90;;;;;;5007640;28;20185;-92
2020/12/14 08:17:52;;;;;;;2.90;1.95;;;10.60;99.90;;;;;;5020772;28;20185;-91
2020/12/14 08:20:32;;;;;;;1.70;1.50;;;10.70;99.90;;;;;;5019265;28;20176;-86
2020/12/14 08:23:02;;;;;;;3.53;2.78;;;10.70;99.90;;;;;;5028822;28;20630;-79
2020/12/14 08:25:31;;;;;;;2.33;1.85;;;10.70;99.90;;;;;;5001878;28;20204;-85
2020/12/14 08:28:16;;;;;;;5.50;2.00;;;10.70;99.90;;;;;;5018384;28;20220;-86
2020/12/14 08:30:45;;;;;;;5.22;1.80;;;10.70;99.90;;;;;;5019271;28;20195;-86
2020/12/14 08:33:12;;;;;;;2.17;1.50;;;10.80;99.90;;;;;;5016324;28;20600;-86
2020/12/14 08:35:39;;;;;;;3.92;1.90;;;10.70;99.90;;;;;;5015278;28;20212;-86
2020/12/14 08:38:14;;;;;;;5.68;1.60;;;10.80;99.90;;;;;;5017701;28;20173;-85
2020/12/14 08:40:48;;;;;;;2.38;1.80;;;10.80;99.90;;;;;;5015669;28;20164;-86
2020/12/14 08:43:16;;;;;;;1.42;1.30;;;11.00;99.90;;;;;;5000728;28;20205;-85
2020/12/14 08:46:03;;;;;;;1.70;1.40;;;11.00;99.90;;;;;;4999740;28;20632;-86
2020/12/14 08:48:31;;;;;;;2.45;1.50;;;11.00;99.90;;;;;;5015761;28;20176;-86
2020/12/14 08:51:23;;;;;;;7.05;1.77;;;11.00;99.90;;;;;;5015306;28;20184;-86
2020/12/14 08:53:51;;;;;;;3.85;1.48;;;11.10;99.90;;;;;;5016562;28;20195;-86
2020/12/14 08:56:20;;;;;;;4.32;1.45;;;11.10;99.90;;;;;;5016351;28;20165;-86
2020/12/14 08:58:57;;;;;;;1.95;1.50;;;11.10;99.90;;;;;;5016659;28;20173;-85
2020/12/14 09:01:25;;;;;;;2.13;1.40;;;11.10;99.90;;;;;;5015173;28;20187;-86
2020/12/14 09:03:53;;;;;;;1.90;1.67;;;11.20;99.90;;;;;;5031219;28;20241;-85
2020/12/14 09:06:33;;;;;;;1.73;1.50;;;11.10;99.90;;;;;;5014779;28;20173;-85
2020/12/14 09:09:09;;;;;;;2.53;1.60;;;11.10;99.90;;;;;;5031398;28;20261;-86
2020/12/14 09:11:50;;;;;;;1.95;1.75;;;11.20;99.90;;;;;;5015639;28;20184;-85
2020/12/14 09:14:21;;;;;;;6.63;2.10;;;11.40;99.90;;;;;;4998786;28;20627;-86
2020/12/14 09:16:49;;;;;;;2.08;1.45;;;11.80;99.90;;;;;;5014853;28;20630;-84
2020/12/14 09:19:26;;;;;;;3.92;1.40;;;11.90;99.90;;;;;;5016087;28;20168;-85
2020/12/14 09:21:52;;;;;;;4.55;1.70;;;11.80;99.90;;;;;;5015545;28;20243;-86
2020/12/14 09:24:32;;;;;;;2.50;1.73;;;11.80;99.90;;;;;;4998028;28;20203;-86
2020/12/14 09:27:07;;;;;;;1.77;1.45;;;12.00;99.90;;;;;;5014931;28;20169;-86
2020/12/14 09:29:33;;;;;;;3.83;1.52;;;12.20;99.90;;;;;;5015602;28;20692;-86
2020/12/14 09:32:00;;;;;;;7.70;1.63;;;12.20;99.90;;;;;;5014217;28;20177;-86
2020/12/14 09:34:26;;;;;;;5.53;1.90;;;12.20;99.90;;;;;;4981574;28;20181;-86
2020/12/14 09:36:56;;;;;;;3.33;1.75;;;12.20;99.90;;;;;;4997521;28;20180;-86
2020/12/14 09:39:26;;;;;;;5.35;1.60;;;12.30;99.90;;;;;;5015438;28;20632;-86
2020/12/14 09:41:52;;;;;;;2.70;1.23;;;13.40;99.90;;;;;;4998272;28;20231;-86
2020/12/14 09:44:19;;;;;;;2.40;1.48;;;14.20;99.90;;;;;;5014264;28;20168;-84
2020/12/14 09:46:45;;;;;;;4.68;1.60;;;14.00;99.90;;;;;;5013598;28;20188;-86
2020/12/14 09:49:11;;;;;;;1.85;1.20;;;13.70;99.90;;;;;;5015331;28;20173;-85
2020/12/14 09:51:36;;;;;;;1.30;1.20;;;13.30;99.90;;;;;;5030396;28;20268;-85
2020/12/14 09:54:04;;;;;;;1.92;1.48;;;12.90;99.90;;;;;;4997284;28;20200;-86
2020/12/14 09:56:30;;;;;;;4.03;1.67;;;12.70;99.90;;;;;;5015023;28;20564;-86
2020/12/14 09:58:56;;;;;;;2.78;1.42;;;12.60;99.90;;;;;;4997182;28;20548;-85
2020/12/14 10:01:24;;;;;;;6.90;1.73;;;12.40;99.90;;;;;;5014219;28;20187;-85
2020/12/14 10:03:50;;;;;;;2.58;1.60;;;12.40;99.90;;;;;;5014163;28;20177;-85
2020/12/14 10:06:15;;;;;;;8.38;1.90;;;12.40;99.90;;;;;;5014921;28;20172;-85
2020/12/14 10:08:41;;;;;;;3.70;1.70;;;12.60;99.90;;;;;;4997474;28;20176;-86
2020/12/14 10:11:08;;;;;;;5.07;1.75;;;13.00;99.90;;;;;;5013872;28;20590;-86
2020/12/14 10:13:35;;;;;;;3.95;1.88;;;13.10;99.90;;;;;;5013370;28;20243;-85
2020/12/14 10:16:01;;;;;;;5.85;1.88;;;13.00;99.90;;;;;;5013043;28;20207;-85
2020/12/14 10:18:27;;;;;;;3.20;1.85;;;13.20;99.90;;;;;;5014467;28;20188;-84
2020/12/14 10:20:53;;;;;;;3.22;1.80;;;13.30;99.90;;;;;;4997065;28;20172;-84
2020/12/14 10:23:18;;;;;;;3.78;1.50;;;13.20;99.90;;;;;;5015678;28;20176;-83
2020/12/14 10:25:44;;;;;;;4.50;1.98;;;13.30;99.90;;;;;;5031498;28;20179;-84
2020/12/14 10:28:10;;;;;;;3.22;1.42;;;13.40;99.90;;;;;;5011379;28;20565;-84
2020/12/14 10:30:36;;;;;;;1.83;1.40;;;13.70;99.90;;;;;;4987833;28;20219;-84
2020/12/14 10:33:03;;;;;;;8.65;1.30;;;14.10;99.90;;;;;;5014595;28;20258;-85
2020/12/14 10:35:29;;;;;;;3.05;1.52;;;15.80;99.90;;;;;;4995431;28;20181;-85
2020/12/14 10:37:57;;;;;;;6.50;1.35;;;15.80;99.90;;;;;;4994307;28;20587;-75
2020/12/14 10:40:27;;;;;;;5.00;1.70;;;16.00;99.90;;;;;;4979438;28;20642;-79
2020/12/14 10:42:54;;;;;;;5.90;1.23;;;15.90;99.90;;;;;;5013503;28;20559;-79
2020/12/14 10:45:20;;;;;;;7.25;1.40;;;15.90;99.90;;;;;;5021431;28;20184;-79
2020/12/14 10:47:45;;;;;;;9.55;2.10;;;15.90;99.90;;;;;;5018313;28;20173;-79
2020/12/14 10:50:17;;;;;;;2.50;1.52;;;16.00;99.90;;;;;;5012431;28;20214;-79
2020/12/14 10:52:43;;;;;;;3.30;1.40;;;16.60;99.90;;;;;;5011780;28;20211;-78
2020/12/14 10:55:09;;;;;;;4.47;1.40;;;16.90;99.90;;;;;;5012276;28;20256;-79
2020/12/14 10:57:35;;;;;;;3.83;1.77;;;16.10;99.90;;;;;;5011500;28;20173;-79
2020/12/14 11:00:07;;;;;;;2.17;1.33;;;15.70;99.90;;;;;;4995943;28;20702;-79
2020/12/14 11:02:38;;;;;;;4.57;1.67;;;15.90;99.90;;;;;;5008799;28;20235;-79
2020/12/14 11:05:06;;;;;;;4.03;1.50;;;15.40;99.90;;;;;;5008604;28;20181;-80
2020/12/14 11:07:32;;;;;;;3.35;1.70;;;15.00;99.90;;;;;;5008095;28;20189;-80
2020/12/14 11:09:59;;;;;;;5.18;1.50;;;14.40;99.90;;;;;;5012195;28;20177;-79
2020/12/14 11:12:25;;;;;;;3.70;1.63;;;14.00;99.90;;;;;;5012113;28;20215;-80
2020/12/14 11:14:52;;;;;;;5.05;1.65;;;13.60;99.90;;;;;;5013157;28;20176;-81
2020/12/14 11:17:18;;;;;;;3.13;1.55;;;13.40;99.90;;;;;;4996193;28;20215;-80
2020/12/14 11:19:43;;;;;;;2.20;1.77;;;13.30;99.90;;;;;;5011806;28;20208;-80
2020/12/14 11:22:09;;;;;;;4.82;2.05;;;13.30;99.90;;;;;;5012368;28;20169;-81
2020/12/14 11:24:35;;;;;;;3.17;1.73;;;13.30;99.90;;;;;;5013450;28;20268;-80
2020/12/14 11:27:01;;;;;;;3.00;1.70;;;13.20;99.90;;;;;;5013480;28;20172;-80
2020/12/14 11:29:27;;;;;;;2.53;1.80;;;13.30;99.90;;;;;;5011673;28;20549;-80
2020/12/14 11:31:54;;;;;;;5.25;2.08;;;13.20;99.90;;;;;;5012170;28;20165;-80
2020/12/14 11:34:20;;;;;;;5.93;2.25;;;13.20;99.90;;;;;;5012176;28;20532;-81
2020/12/14 11:36:45;;;;;;;8.57;2.15;;;13.20;99.90;;;;;;4995864;28;20176;-81
2020/12/14 11:39:11;;;;;;;3.90;1.92;;;13.10;99.90;;;;;;5011511;28;20180;-80
2020/12/14 11:41:37;;;;;;;5.25;2.60;;;13.10;99.90;;;;;;5013045;28;20172;-80
2020/12/14 11:44:02;;;;;;;4.38;2.28;;;13.10;99.90;;;;;;5009406;28;20235;-80
2020/12/14 11:46:28;;;;;;;6.75;2.53;;;13.10;99.90;;;;;;5010589;28;20181;-81
2020/12/14 11:48:54;;;;;;;6.20;2.55;;;13.10;99.90;;;;;;5013344;28;20549;-81
2020/12/14 11:51:20;;;;;;;4.43;2.10;;;13.10;99.90;;;;;;5008322;28;20268;-80
2020/12/14 11:53:47;;;;;;;8.20;2.58;;;13.00;99.90;;;;;;4992173;28;20619;-81
2020/12/14 11:56:12;;;;;;;6.10;2.13;;;13.00;99.90;;;;;;5012669;28;20200;-80
2020/12/14 11:58:38;;;;;;;4.95;2.42;;;12.90;99.90;;;;;;5011707;28;20258;-81
2020/12/14 12:01:04;;;;;;;4.32;1.83;;;13.00;99.90;;;;;;5010635;28;20189;-80
2020/12/14 12:03:29;;;;;;;6.43;3.15;;;13.00;99.90;;;;;;5011993;28;20703;-81
2020/12/14 12:05:56;;;;;;;3.65;2.00;;;13.00;99.90;;;;;;5017329;28;20173;-80
2020/12/14 12:08:24;;;;;;;6.00;2.30;;;13.20;99.90;;;;;;5028732;28;20215;-81
2020/12/14 12:10:50;;;;;;;4.90;2.15;;;13.20;99.90;;;;;;5015470;28;20188;-80
2020/12/14 12:13:16;;;;;;;9.18;2.65;;;13.30;99.90;;;;;;5016287;28;20196;-81
2020/12/14 12:15:41;;;;;;;4.28;2.30;;;13.40;99.90;;;;;;4998097;28;20643;-80
2020/12/14 12:18:07;;;;;;;5.60;2.60;;;13.30;99.90;;;;;;5015191;28;20268;-80
2020/12/14 12:20:32;;;;;;;5.90;2.13;;;13.40;99.90;;;;;;5014954;28;20180;-81
2020/12/14 12:22:58;;;;;;;5.30;2.00;;;13.30;99.90;;;;;;5015188;28;20984;-80
2020/12/14 12:25:27;;;;;;;4.95;3.05;;;13.40;99.90;;;;;;4998204;28;20177;-80
2020/12/14 12:27:53;;;;;;;4.97;2.58;;;13.30;99.90;;;;;;4996817;28;20244;-80
2020/12/14 12:30:18;;;;;;;3.58;2.75;;;13.30;99.90;;;;;;5005668;28;20216;-81
2020/12/14 12:32:44;;;;;;;8.88;2.70;;;13.20;99.90;;;;;;5014858;28;20201;-81
2020/12/14 12:35:10;;;;;;;6.30;2.67;;;13.20;99.90;;;;;;4998415;28;20177;-81
2020/12/14 12:37:35;;;;;;;3.47;2.78;;;13.10;99.90;;;;;;5014096;28;20237;-81
2020/12/14 12:40:04;;;;;;;4.50;2.55;;;12.90;99.90;;;;;;4981857;28;20181;-79
2020/12/14 12:42:30;;;;;;;4.50;2.50;;;12.90;99.90;;;;;;5016244;28;20220;-80
2020/12/14 12:44:55;;;;;;;7.18;3.22;;;12.70;99.90;;;;;;5015567;28;20177;-81
2020/12/14 12:47:21;;;;;;;4.50;2.65;;;12.70;99.90;;;;;;5014425;28;20227;-80
2020/12/14 12:49:47;;;;;;;3.85;2.50;;;12.60;99.90;;;;;;5015653;28;20197;-81
2020/12/14 12:52:12;;;;;;;4.95;2.35;;;12.40;99.90;;;;;;5017884;28;20184;-81
2020/12/14 12:54:38;;;;;;;4.70;2.90;;;12.40;99.90;;;;;;5032396;28;20207;-81
2020/12/14 12:57:04;;;;;;;4.82;3.22;;;12.40;99.90;;;;;;5007013;28;20268;-81
2020/12/14 12:59:31;;;;;;;5.10;2.88;;;12.40;99.90;;;;;;5014233;28;20191;-80
2020/12/14 13:01:56;;;;;;;5.47;3.50;;;12.40;99.90;;;;;;5016262;28;20165;-81
2020/12/14 13:04:22;;;;;;;6.05;3.17;;;12.50;99.90;;;;;;4998275;28;20172;-81
2020/12/14 13:06:48;;;;;;;14.40;3.58;;;12.60;99.90;;;;;;5014627;28;20188;-80
2020/12/14 13:09:13;;;;;;;5.45;3.80;;;12.50;99.90;;;;;;5002218;28;20271;-81
2020/12/14 13:11:40;;;;;;;4.28;3.50;;;12.50;99.90;;;;;;5026387;28;20176;-81
2020/12/14 13:14:08;;;;;;;6.85;3.25;;;12.50;99.90;;;;;;5001410;28;20236;-81
2020/12/14 13:16:33;;;;;;;4.82;3.70;;;12.50;99.90;;;;;;5015220;28;20184;-81
2020/12/14 13:18:59;;;;;;;6.93;2.83;;;12.50;99.90;;;;;;5014224;28;20165;-81